createdAt,value
2023-05-06T00:01:19.512Z,100576.25
2023-05-06T00:03:46.436Z,100576.56
2023-05-06T00:06:15.621Z,100566.72
2023-05-06T00:08:42.258Z,100568.31
2023-05-06T00:11:08.777Z,100573.47
2023-05-06T00:13:35.255Z,100569.28
2023-05-06T00:16:01.654Z,100564.59
2023-05-06T00:18:28.438Z,100565.91
2023-05-06T00:20:57.240Z,100563.38
2023-05-06T00:23:26.785Z,100559.19
2023-05-06T00:25:55.867Z,100563.25
2023-05-06T00:28:22.227Z,100552.00
2023-05-06T00:30:48.636Z,100549.47
2023-05-06T00:33:15.149Z,100557.28
2023-05-06T00:35:41.550Z,100553.22
2023-05-06T00:38:10.873Z,100543.22
2023-05-06T00:40:37.809Z,100545.38
2023-05-06T00:43:04.406Z,100547.31
2023-05-06T00:45:31.534Z,100539.75
2023-05-06T00:47:58.784Z,100541.69
2023-05-06T00:50:28.048Z,100540.59
2023-05-06T00:52:54.658Z,100546.47
2023-05-06T00:55:22.221Z,100548.16
2023-05-06T00:57:51.867Z,100553.50
2023-05-06T01:00:25.041Z,100546.28
2023-05-06T01:02:52.526Z,100548.34
2023-05-06T01:05:22.157Z,100544.03
2023-05-06T01:08:00.525Z,100544.03
2023-05-06T01:10:41.938Z,100540.94
2023-05-06T01:13:15.380Z,100546.47
2023-05-06T01:15:46.947Z,100542.53
2023-05-06T01:18:17.863Z,100544.13
2023-05-06T01:20:49.766Z,100545.81
2023-05-06T01:23:17.130Z,100549.00
2023-05-06T01:25:43.691Z,100551.00
2023-05-06T01:28:11.984Z,100556.78
2023-05-06T01:30:46.196Z,100551.97
2023-05-06T01:33:33.321Z,100551.50
2023-05-06T01:36:05.220Z,100547.47
2023-05-06T01:38:50.591Z,100546.78
2023-05-06T01:41:18.720Z,100544.66
2023-05-06T01:43:47.391Z,100544.16
2023-05-06T01:46:17.843Z,100552.56
2023-05-06T01:48:46.381Z,100547.66
2023-05-06T01:51:12.879Z,100550.03
2023-05-06T01:53:39.200Z,100553.53
2023-05-06T01:56:05.914Z,100552.91
2023-05-06T01:58:32.462Z,100553.28
2023-05-06T02:00:58.844Z,100552.94
2023-05-06T02:03:25.685Z,100560.25
2023-05-06T02:05:52.173Z,100551.13
2023-05-06T02:08:18.607Z,100555.69
2023-05-06T02:10:45.322Z,100561.09
2023-05-06T02:13:12.162Z,100561.47
2023-05-06T02:15:41.623Z,100560.97
2023-05-06T02:18:08.474Z,100564.81
2023-05-06T02:20:34.878Z,100563.84
2023-05-06T02:23:01.252Z,100563.84
2023-05-06T02:25:27.797Z,100565.75
2023-05-06T02:27:58.844Z,100569.59
2023-05-06T02:30:25.251Z,100563.38
2023-05-06T02:32:54.793Z,100562.88
2023-05-06T02:35:21.312Z,100557.84
2023-05-06T02:37:47.667Z,100560.16
2023-05-06T02:40:14.204Z,100557.84
2023-05-06T02:42:40.651Z,100562.41
2023-05-06T02:45:08.024Z,100556.66
2023-05-06T02:47:34.775Z,100557.94
2023-05-06T02:50:01.228Z,100554.00
2023-05-06T02:52:27.715Z,100551.59
2023-05-06T02:54:54.083Z,100546.81
2023-05-06T02:57:20.455Z,100538.28
2023-05-06T02:59:46.944Z,100539.22
2023-05-06T03:02:13.382Z,100546.53
2023-05-06T03:04:39.883Z,100536.47
2023-05-06T03:07:06.488Z,100538.59
2023-05-06T03:09:35.679Z,100529.16
2023-05-06T03:12:02.211Z,100538.00
2023-05-06T03:14:28.578Z,100532.97
2023-05-06T03:16:57.759Z,100538.84
2023-05-06T03:19:26.898Z,100537.41
2023-05-06T03:21:53.448Z,100541.44
2023-05-06T03:24:20.291Z,100533.94
2023-05-06T03:26:51.683Z,100531.09
2023-05-06T03:29:18.052Z,100532.88
2023-05-06T03:31:44.484Z,100540.03
2023-05-06T03:34:13.273Z,100537.63
2023-05-06T03:36:39.616Z,100538.38
2023-05-06T03:39:05.996Z,100545.56
2023-05-06T03:41:32.361Z,100547.22
2023-05-06T03:43:58.874Z,100550.19
2023-05-06T03:46:25.267Z,100547.78
2023-05-06T03:48:54.051Z,100550.28
2023-05-06T03:51:20.526Z,100548.13
2023-05-06T03:53:47.003Z,100550.78
2023-05-06T03:56:13.545Z,100541.75
2023-05-06T03:58:40.060Z,100555.97
2023-05-06T04:01:06.543Z,100550.84
2023-05-06T04:03:32.966Z,100558.00
2023-05-06T04:05:59.383Z,100550.94
2023-05-06T04:08:28.370Z,100551.19
2023-05-06T04:10:55.242Z,100558.00
2023-05-06T04:13:21.695Z,100553.59
2023-05-06T04:15:49.028Z,100557.19
2023-05-06T04:18:19.193Z,100558.38
2023-05-06T04:20:48.022Z,100556.44
2023-05-06T04:23:15.298Z,100563.41
2023-05-06T04:25:42.733Z,100570.00
2023-05-06T04:28:11.219Z,100567.25
2023-05-06T04:30:37.868Z,100561.97
2023-05-06T04:33:04.415Z,100566.91
2023-05-06T04:35:31.106Z,100563.44
2023-05-06T04:37:57.534Z,100572.78
2023-05-06T04:40:26.218Z,100567.03
2023-05-06T04:42:52.772Z,100572.56
2023-05-06T04:45:19.566Z,100572.22
2023-05-06T04:47:46.297Z,100581.47
2023-05-06T04:50:12.969Z,100577.41
2023-05-06T04:52:41.997Z,100581.28
2023-05-06T04:55:09.118Z,100579.25
2023-05-06T04:57:35.794Z,100582.47
2023-05-06T05:00:02.315Z,100581.06
2023-05-06T05:02:31.350Z,100584.94
2023-05-06T05:04:57.895Z,100594.50
2023-05-06T05:07:24.398Z,100593.47
2023-05-06T05:09:50.757Z,100591.06
2023-05-06T05:12:17.136Z,100601.25
2023-05-06T05:14:47.271Z,100597.41
2023-05-06T05:17:13.755Z,100599.66
2023-05-06T05:19:40.954Z,100596.97
2023-05-06T05:22:07.309Z,100596.34
2023-05-06T05:24:33.860Z,100599.66
2023-05-06T05:27:00.233Z,100599.63
2023-05-06T05:29:26.576Z,100604.38
2023-05-06T05:31:53.005Z,100601.97
2023-05-06T05:34:19.444Z,100604.56
2023-05-06T05:36:45.957Z,100603.78
2023-05-06T05:39:12.312Z,100601.06
2023-05-06T05:41:38.663Z,100604.84
2023-05-06T05:44:05.025Z,100597.84
2023-05-06T05:46:31.594Z,100598.50
2023-05-06T05:48:58.143Z,100603.13
2023-05-06T05:51:25.820Z,100604.41
2023-05-06T05:53:54.622Z,100610.06
2023-05-06T05:56:21.183Z,100613.13
2023-05-06T05:58:47.873Z,100609.09
2023-05-06T06:01:14.631Z,100599.47
2023-05-06T06:03:42.111Z,100606.81
2023-05-06T06:06:09.463Z,100606.25
2023-05-06T06:08:36.068Z,100609.38
2023-05-06T06:11:04.356Z,100599.47
2023-05-06T06:13:31.287Z,100606.34
2023-05-06T06:15:58.068Z,100596.56
2023-05-06T06:18:24.691Z,100592.78
2023-05-06T06:20:53.881Z,100599.09
2023-05-06T06:23:20.953Z,100613.31
2023-05-06T06:25:47.463Z,100606.91
2023-05-06T06:28:13.952Z,100613.84
2023-05-06T06:30:44.015Z,100608.25
2023-05-06T06:33:10.471Z,100610.72
2023-05-06T06:35:36.889Z,100612.13
2023-05-06T06:38:03.250Z,100629.28
2023-05-06T06:40:29.759Z,100623.84
2023-05-06T06:42:59.242Z,100619.13
2023-05-06T06:45:28.375Z,100629.00
2023-05-06T06:47:57.262Z,100629.06
2023-05-06T06:50:28.359Z,100619.34
2023-05-06T06:52:57.005Z,100626.16
2023-05-06T06:55:25.970Z,100622.81
2023-05-06T06:57:52.356Z,100624.13
2023-05-06T07:00:19.130Z,100622.53
2023-05-06T07:02:48.555Z,100614.78
2023-05-06T07:05:18.251Z,100622.53
2023-05-06T07:07:44.594Z,100621.47
2023-05-06T07:10:11.160Z,100624.47
2023-05-06T07:12:37.886Z,100627.47
2023-05-06T07:15:06.842Z,100626.44
2023-05-06T07:17:33.659Z,100614.25
2023-05-06T07:20:02.300Z,100622.34
2023-05-06T07:22:29.534Z,100613.59
2023-05-06T07:24:55.912Z,100603.88
2023-05-06T07:27:22.778Z,100612.16
2023-05-06T07:29:49.253Z,100611.22
2023-05-06T07:32:15.928Z,100601.66
2023-05-06T07:34:44.739Z,100600.78
2023-05-06T07:37:13.988Z,100600.59
2023-05-06T07:39:43.596Z,100602.88
2023-05-06T07:42:13.117Z,100603.16
2023-05-06T07:44:42.096Z,100603.56
2023-05-06T07:47:10.927Z,100605.94
2023-05-06T07:49:37.428Z,100590.63
2023-05-06T07:52:04.115Z,100583.19
2023-05-06T07:54:31.803Z,100585.75
2023-05-06T07:56:58.356Z,100593.56
2023-05-06T07:59:24.812Z,100593.50
2023-05-06T08:01:53.840Z,100581.47
2023-05-06T08:04:20.495Z,100588.47
2023-05-06T08:06:52.094Z,100578.56
2023-05-06T08:09:23.069Z,100583.72
2023-05-06T08:11:50.642Z,100612.25
2023-05-06T08:14:17.034Z,100602.81
2023-05-06T08:16:43.546Z,100572.63
2023-05-06T08:19:10.275Z,100578.25
2023-05-06T08:21:36.696Z,100575.28
2023-05-06T08:24:03.464Z,100575.44
2023-05-06T08:26:30.003Z,100575.59
2023-05-06T08:28:59.600Z,100606.44
2023-05-06T08:31:26.020Z,100591.25
2023-05-06T08:33:54.781Z,100609.81
2023-05-06T08:36:22.231Z,100596.69
2023-05-06T08:38:51.245Z,100592.50
2023-05-06T08:41:19.751Z,100586.94
2023-05-06T08:43:48.001Z,100581.25
2023-05-06T08:46:14.855Z,100569.78
2023-05-06T08:48:41.730Z,100579.06
2023-05-06T08:51:08.839Z,100581.88
2023-05-06T08:53:35.728Z,100584.38
2023-05-06T08:56:04.427Z,100576.09
2023-05-06T08:58:35.033Z,100575.63
2023-05-06T09:01:03.332Z,100560.66
2023-05-06T09:03:32.750Z,100543.06
2023-05-06T09:05:59.302Z,100562.81
2023-05-06T09:08:25.968Z,100561.28
2023-05-06T09:10:52.754Z,100565.72
2023-05-06T09:13:19.601Z,100552.66
2023-05-06T09:15:47.801Z,100563.34
2023-05-06T09:18:16.945Z,100558.13
2023-05-06T09:20:48.549Z,100547.91
2023-05-06T09:23:18.752Z,100532.59
2023-05-06T09:25:46.914Z,100535.97
2023-05-06T09:28:14.534Z,100553.63
2023-05-06T09:30:43.266Z,100527.13
2023-05-06T09:33:10.793Z,100523.28
2023-05-06T09:35:41.120Z,100545.75
2023-05-06T09:38:08.794Z,100541.34
2023-05-06T09:40:38.983Z,100525.53
2023-05-06T09:43:06.098Z,100535.81
2023-05-06T09:45:33.001Z,100535.44
2023-05-06T09:47:59.607Z,100512.81
2023-05-06T09:50:26.689Z,100523.59
2023-05-06T09:52:54.902Z,100530.09
2023-05-06T09:55:23.157Z,100540.97
2023-05-06T09:57:50.299Z,100520.16
2023-05-06T10:00:27.913Z,100499.75
2023-05-06T10:02:54.629Z,100507.31
2023-05-06T10:05:22.800Z,100503.47
2023-05-06T10:07:53.377Z,100496.84
2023-05-06T10:10:20.549Z,100475.38
2023-05-06T10:12:48.703Z,100487.84
2023-05-06T10:15:15.231Z,100491.72
2023-05-06T10:17:48.246Z,100489.28
2023-05-06T10:20:16.406Z,100479.25
2023-05-06T10:22:52.015Z,100465.59
2023-05-06T10:25:28.500Z,100468.75
2023-05-06T10:27:54.918Z,100491.66
2023-05-06T10:30:23.131Z,100473.78
2023-05-06T10:32:55.823Z,100498.44
2023-05-06T10:35:36.271Z,100479.00
2023-05-06T10:38:05.292Z,100477.00
2023-05-06T10:40:34.575Z,100460.44
2023-05-06T10:43:23.690Z,100448.63
2023-05-06T10:45:59.783Z,100452.00
2023-05-06T10:48:26.920Z,100442.16
2023-05-06T10:51:19.873Z,100440.34
2023-05-06T10:54:09.341Z,100442.25
2023-05-06T10:56:38.207Z,100451.31
2023-05-06T10:59:10.038Z,100434.31
2023-05-06T11:01:43.859Z,100431.81
2023-05-06T11:04:18.501Z,100427.97
2023-05-06T11:06:46.743Z,100437.03
2023-05-06T11:09:26.710Z,100431.75
2023-05-06T11:12:03.176Z,100428.41
2023-05-06T11:14:37.610Z,100394.03
2023-05-06T11:17:28.139Z,100430.41
2023-05-06T11:20:23.269Z,100420.94
2023-05-06T11:22:50.227Z,100414.38
2023-05-06T11:25:40.087Z,100408.19
2023-05-06T11:28:17.050Z,100414.59
2023-05-06T11:30:56.029Z,100419.56
2023-05-06T11:33:26.090Z,100423.78
2023-05-06T11:35:53.137Z,100414.38
2023-05-06T11:38:19.546Z,100433.38
2023-05-06T11:40:46.108Z,100424.81
2023-05-06T11:43:16.970Z,100416.16
2023-05-06T11:45:47.555Z,100426.34
2023-05-06T11:48:15.410Z,100410.28
2023-05-06T11:50:47.172Z,100409.97
2023-05-06T11:53:19.039Z,100423.69
2023-05-06T11:55:46.537Z,100429.34
2023-05-06T11:58:24.446Z,100410.56
2023-05-06T12:00:54.521Z,100422.16
2023-05-06T12:03:22.173Z,100420.00
2023-05-06T12:05:50.842Z,100425.81
2023-05-06T12:08:27.479Z,100422.69
2023-05-06T12:10:59.818Z,100425.44
2023-05-06T12:13:30.069Z,100439.88
2023-05-06T12:15:59.635Z,100416.13
2023-05-06T12:18:30.056Z,100418.91
2023-05-06T12:20:57.542Z,100415.22
2023-05-06T12:23:24.038Z,100404.88
2023-05-06T12:26:05.005Z,100428.78
2023-05-06T12:28:33.042Z,100420.00
2023-05-06T12:31:17.535Z,100419.16
2023-05-06T12:33:45.384Z,100400.28
2023-05-06T12:36:11.868Z,100419.34
2023-05-06T12:38:38.414Z,100412.56
2023-05-06T12:41:06.920Z,100396.78
2023-05-06T12:43:33.397Z,100388.88
2023-05-06T12:46:07.966Z,100398.91
2023-05-06T12:48:34.778Z,100399.19
2023-05-06T12:51:01.250Z,100403.19
2023-05-06T12:53:32.922Z,100416.16
2023-05-06T12:56:01.804Z,100396.78
2023-05-06T12:58:30.701Z,100388.53
2023-05-06T13:00:59.557Z,100376.91
2023-05-06T13:03:26.764Z,100384.84
2023-05-06T13:05:53.242Z,100398.59
2023-05-06T13:08:20.153Z,100393.81
2023-05-06T13:10:48.980Z,100401.22
2023-05-06T13:13:16.569Z,100374.09
2023-05-06T13:15:43.431Z,100370.72
2023-05-06T13:18:09.877Z,100393.25
2023-05-06T13:20:36.700Z,100375.25
2023-05-06T13:23:03.811Z,100366.41
2023-05-06T13:25:32.905Z,100358.66
2023-05-06T13:28:02.109Z,100352.72
2023-05-06T13:30:34.722Z,100354.78
2023-05-06T13:33:01.259Z,100345.66
2023-05-06T13:35:27.659Z,100347.31
2023-05-06T13:37:54.096Z,100356.66
2023-05-06T13:40:22.946Z,100338.06
2023-05-06T13:42:49.287Z,100329.44
2023-05-06T13:45:15.681Z,100336.03
2023-05-06T13:47:42.955Z,100344.31
2023-05-06T13:50:12.266Z,100314.59
2023-05-06T13:52:39.028Z,100317.34
2023-05-06T13:55:05.920Z,100318.53
2023-05-06T13:57:32.297Z,100320.75
2023-05-06T13:59:58.738Z,100327.81
2023-05-06T14:02:26.445Z,100311.50
2023-05-06T14:04:52.966Z,100308.81
2023-05-06T14:07:19.603Z,100298.09
2023-05-06T14:09:46.077Z,100307.69
2023-05-06T14:12:12.425Z,100308.66
2023-05-06T14:14:44.499Z,100307.69
2023-05-06T14:17:11.219Z,100302.09
2023-05-06T14:19:37.699Z,100293.44
2023-05-06T14:22:06.526Z,100300.25
2023-05-06T14:24:35.243Z,100288.50
2023-05-06T14:27:04.132Z,100285.44
2023-05-06T14:29:31.031Z,100282.44
2023-05-06T14:31:59.688Z,100296.66
2023-05-06T14:34:26.996Z,100294.88
2023-05-06T14:36:56.011Z,100282.59
2023-05-06T14:39:22.523Z,100286.53
2023-05-06T14:41:48.948Z,100279.09
2023-05-06T14:44:15.663Z,100276.72
2023-05-06T14:46:42.212Z,100266.69
2023-05-06T14:49:08.641Z,100267.94
2023-05-06T14:51:35.140Z,100274.88
2023-05-06T14:54:01.749Z,100281.66
2023-05-06T14:56:30.711Z,100271.34
2023-05-06T14:59:01.189Z,100263.03
2023-05-06T15:01:32.214Z,100263.69
2023-05-06T15:03:58.755Z,100269.88
2023-05-06T15:06:25.757Z,100268.41
2023-05-06T15:08:52.533Z,100262.44
2023-05-06T15:11:21.551Z,100262.88
2023-05-06T15:13:48.121Z,100275.78
2023-05-06T15:16:14.783Z,100276.34
2023-05-06T15:18:42.054Z,100278.25
2023-05-06T15:21:08.612Z,100278.25
2023-05-06T15:23:35.224Z,100283.25
2023-05-06T15:26:03.393Z,100280.88
2023-05-06T15:28:29.881Z,100278.66
2023-05-06T15:30:56.283Z,100272.53
2023-05-06T15:33:22.737Z,100275.22
2023-05-06T15:35:49.288Z,100268.09
2023-05-06T15:38:15.652Z,100269.94
2023-05-06T15:40:50.226Z,100266.38
2023-05-06T15:43:22.901Z,100264.53
2023-05-06T15:45:49.937Z,100265.38
2023-05-06T15:48:16.434Z,100259.63
2023-05-06T15:50:48.042Z,100265.81
2023-05-06T15:53:14.436Z,100271.88
2023-05-06T15:55:44.492Z,100261.66
2023-05-06T15:58:13.189Z,100276.59
2023-05-06T16:00:39.706Z,100264.03
2023-05-06T16:03:12.435Z,100262.56
2023-05-06T16:05:39.660Z,100260.53
2023-05-06T16:08:06.175Z,100263.84
2023-05-06T16:10:35.632Z,100258.06
2023-05-06T16:13:02.105Z,100257.97
2023-05-06T16:15:31.653Z,100252.63
2023-05-06T16:18:00.482Z,100256.69
2023-05-06T16:20:31.491Z,100255.16
2023-05-06T16:22:58.287Z,100256.38
2023-05-06T16:25:27.353Z,100249.16
2023-05-06T16:27:53.861Z,100245.84
2023-05-06T16:30:20.495Z,100252.03
2023-05-06T16:32:49.592Z,100255.25
2023-05-06T16:35:20.297Z,100254.91
2023-05-06T16:37:49.210Z,100249.56
2023-05-06T16:40:20.634Z,100247.50
2023-05-06T16:42:50.068Z,100239.28
2023-05-06T16:45:16.816Z,100247.50
2023-05-06T16:47:44.268Z,100238.84
2023-05-06T16:50:12.133Z,100246.59
2023-05-06T16:52:38.818Z,100241.22
2023-05-06T16:55:06.382Z,100240.78
2023-05-06T16:57:32.916Z,100236.47
2023-05-06T17:00:01.803Z,100234.81
2023-05-06T17:02:28.368Z,100232.94
2023-05-06T17:04:57.439Z,100239.09
2023-05-06T17:07:23.778Z,100227.16
2023-05-06T17:09:50.619Z,100237.44
2023-05-06T17:12:17.102Z,100230.22
2023-05-06T17:14:43.982Z,100239.81
2023-05-06T17:17:13.526Z,100231.16
2023-05-06T17:19:39.999Z,100229.50
2023-05-06T17:22:08.602Z,100234.84
2023-05-06T17:24:37.240Z,100235.63
2023-05-06T17:27:03.859Z,100227.94
2023-05-06T17:29:30.266Z,100230.09
2023-05-06T17:31:56.654Z,100229.66
2023-05-06T17:34:23.083Z,100228.53
2023-05-06T17:36:49.599Z,100216.81
2023-05-06T17:39:19.218Z,100221.81
2023-05-06T17:41:45.644Z,100225.03
2023-05-06T17:44:18.172Z,100225.31
2023-05-06T17:46:47.740Z,100229.75
2023-05-06T17:49:14.291Z,100234.00
2023-05-06T17:51:45.523Z,100238.06
2023-05-06T17:54:12.326Z,100231.59
2023-05-06T17:56:38.669Z,100230.38
2023-05-06T17:59:05.484Z,100245.06
2023-05-06T18:01:32.034Z,100236.41
2023-05-06T18:03:58.742Z,100231.06
2023-05-06T18:06:25.296Z,100229.38
2023-05-06T18:08:51.649Z,100240.16
2023-05-06T18:11:18.157Z,100242.84
2023-05-06T18:13:44.581Z,100240.25
2023-05-06T18:16:13.678Z,100243.00
2023-05-06T18:18:42.888Z,100241.53
2023-05-06T18:21:09.423Z,100246.13
2023-05-06T18:23:35.853Z,100248.06
2023-05-06T18:26:05.312Z,100250.56
2023-05-06T18:28:31.950Z,100249.34
2023-05-06T18:30:58.559Z,100243.00
2023-05-06T18:33:24.942Z,100258.16
2023-05-06T18:35:51.448Z,100259.31
2023-05-06T18:38:18.183Z,100262.91
2023-05-06T18:40:47.346Z,100263.94
2023-05-06T18:43:13.693Z,100261.69
2023-05-06T18:45:43.492Z,100269.56
2023-05-06T18:48:10.866Z,100273.31
2023-05-06T18:50:37.356Z,100268.81
2023-05-06T18:53:06.062Z,100279.84
2023-05-06T18:55:32.403Z,100282.91
2023-05-06T18:57:58.867Z,100277.59
2023-05-06T19:00:27.480Z,100284.47
2023-05-06T19:02:56.306Z,100289.19
2023-05-06T19:05:22.819Z,100284.22
2023-05-06T19:07:49.327Z,100301.03
2023-05-06T19:10:15.946Z,100306.06
2023-05-06T19:12:45.476Z,100302.03
2023-05-06T19:15:13.898Z,100309.41
2023-05-06T19:17:40.302Z,100308.72
2023-05-06T19:20:09.537Z,100312.41
2023-05-06T19:22:40.952Z,100318.03
2023-05-06T19:25:11.002Z,100327.53
2023-05-06T19:27:37.632Z,100331.84
2023-05-06T19:30:05.081Z,100337.47
2023-05-06T19:32:34.230Z,100334.31
2023-05-06T19:35:07.906Z,100335.63
2023-05-06T19:37:35.393Z,100335.44
2023-05-06T19:40:06.437Z,100334.78
2023-05-06T19:42:33.830Z,100340.22
2023-05-06T19:45:06.785Z,100342.72
2023-05-06T19:47:33.145Z,100350.50
2023-05-06T19:49:59.687Z,100342.16
2023-05-06T19:52:30.530Z,100350.63
2023-05-06T19:54:57.449Z,100354.91
2023-05-06T19:57:24.001Z,100356.91
2023-05-06T19:59:50.546Z,100358.34
2023-05-06T20:02:16.899Z,100365.34
2023-05-06T20:04:44.940Z,100358.34
2023-05-06T20:07:13.015Z,100355.03
2023-05-06T20:09:39.606Z,100350.00
2023-05-06T20:12:11.690Z,100361.28
2023-05-06T20:14:38.093Z,100362.44
2023-05-06T20:17:04.451Z,100358.78
2023-05-06T20:19:32.060Z,100356.94
2023-05-06T20:22:00.947Z,100355.72
2023-05-06T20:24:29.511Z,100349.22
2023-05-06T20:26:59.185Z,100360.78
2023-05-06T20:29:26.133Z,100356.09
2023-05-06T20:31:52.714Z,100364.16
2023-05-06T20:34:19.200Z,100369.25
2023-05-06T20:36:46.599Z,100365.53
2023-05-06T20:39:13.214Z,100371.63
2023-05-06T20:41:41.888Z,100366.09
2023-05-06T20:44:08.498Z,100382.31
2023-05-06T20:46:34.961Z,100376.66
2023-05-06T20:49:01.420Z,100371.97
2023-05-06T20:51:28.874Z,100371.53
2023-05-06T20:54:01.074Z,100376.47
2023-05-06T20:56:28.428Z,100375.09
2023-05-06T20:58:55.723Z,100373.72
2023-05-06T21:01:23.825Z,100385.09
2023-05-06T21:03:50.727Z,100377.59
2023-05-06T21:06:18.622Z,100378.59
2023-05-06T21:08:46.179Z,100380.31
2023-05-06T21:11:15.768Z,100378.09
2023-05-06T21:13:42.282Z,100389.28
2023-05-06T21:16:08.640Z,100375.66
2023-05-06T21:18:35.162Z,100384.91
2023-05-06T21:21:01.803Z,100385.47
2023-05-06T21:23:28.327Z,100384.41
2023-05-06T21:25:54.733Z,100382.06
2023-05-06T21:28:23.757Z,100378.16
2023-05-06T21:30:52.886Z,100386.41
2023-05-06T21:33:19.580Z,100389.50
2023-05-06T21:35:45.967Z,100380.44
2023-05-06T21:38:14.678Z,100388.00
2023-05-06T21:40:43.425Z,100378.69
2023-05-06T21:43:09.832Z,100394.59
2023-05-06T21:45:36.433Z,100383.59
2023-05-06T21:48:02.948Z,100382.88
2023-05-06T21:50:29.545Z,100381.22
2023-05-06T21:52:56.134Z,100378.00
2023-05-06T21:55:27.668Z,100379.13
2023-05-06T21:57:59.372Z,100371.47
2023-05-06T22:00:25.917Z,100382.34
2023-05-06T22:02:53.283Z,100374.97
2023-05-06T22:05:19.899Z,100377.91
2023-05-06T22:07:46.300Z,100374.72
2023-05-06T22:10:13.620Z,100363.84
2023-05-06T22:12:40.294Z,100369.28
2023-05-06T22:15:07.480Z,100367.06
2023-05-06T22:17:34.776Z,100374.31
2023-05-06T22:20:06.185Z,100367.66
2023-05-06T22:22:32.871Z,100365.53
2023-05-06T22:25:02.628Z,100373.78
2023-05-06T22:27:31.453Z,100367.09
2023-05-06T22:29:57.800Z,100364.59
2023-05-06T22:32:24.455Z,100370.97
2023-05-06T22:34:53.530Z,100369.59
2023-05-06T22:37:24.779Z,100370.72
2023-05-06T22:39:52.944Z,100369.34
2023-05-06T22:42:24.177Z,100372.13
2023-05-06T22:44:50.571Z,100375.75
2023-05-06T22:47:17.132Z,100383.00
2023-05-06T22:49:46.677Z,100373.38
2023-05-06T22:52:13.412Z,100383.00
2023-05-06T22:54:42.562Z,100387.19
2023-05-06T22:57:09.062Z,100388.00
2023-05-06T22:59:35.534Z,100389.81
2023-05-06T23:02:03.457Z,100384.38
2023-05-06T23:04:29.862Z,100388.00
2023-05-06T23:06:57.432Z,100377.44
2023-05-06T23:09:23.983Z,100386.34
2023-05-06T23:11:50.517Z,100385.38
2023-05-06T23:14:19.439Z,100389.13
2023-05-06T23:16:45.877Z,100381.31
2023-05-06T23:19:12.317Z,100385.22
2023-05-06T23:21:41.387Z,100389.13
2023-05-06T23:24:12.843Z,100385.09
2023-05-06T23:26:39.189Z,100376.31
2023-05-06T23:29:05.558Z,100380.91
2023-05-06T23:31:32.080Z,100386.06
2023-05-06T23:33:58.563Z,100390.50
2023-05-06T23:36:24.925Z,100385.78
2023-05-06T23:38:56.478Z,100398.19
2023-05-06T23:41:23.478Z,100397.88
2023-05-06T23:43:49.932Z,100399.84
2023-05-06T23:46:18.791Z,100411.13
2023-05-06T23:48:45.213Z,100400.94
2023-05-06T23:51:11.649Z,100394.53
2023-05-06T23:53:38.450Z,100398.56
2023-05-06T23:56:05.351Z,100397.97
2023-05-06T23:58:36.651Z,100391.00
